createdAt,value
2022-10-26T00:01:11.528Z,9.10
2022-10-26T00:03:39.966Z,9.10
2022-10-26T00:06:10.173Z,9.10
2022-10-26T00:08:37.569Z,9.20
2022-10-26T00:11:05.534Z,9.10
2022-10-26T00:13:33.715Z,9.10
2022-10-26T00:18:32.711Z,9.10
2022-10-26T00:21:04.522Z,9.20
2022-10-26T00:23:31.899Z,9.20
2022-10-26T00:25:59.272Z,9.20
2022-10-26T00:28:26.153Z,9.20
2022-10-26T00:30:53.813Z,9.30
2022-10-26T00:33:21.325Z,9.30
2022-10-26T00:35:52.879Z,9.30
2022-10-26T00:38:20.054Z,9.30
2022-10-26T00:40:47.572Z,9.30
2022-10-26T00:43:39.092Z,9.30
2022-10-26T00:46:10.542Z,9.30
2022-10-26T00:48:43.404Z,9.30
2022-10-26T00:51:17.040Z,9.30
2022-10-26T00:53:44.598Z,9.30
2022-10-26T00:56:12.045Z,9.30
2022-10-26T00:58:40.225Z,9.30
2022-10-26T01:01:07.205Z,9.40
2022-10-26T01:03:36.075Z,9.40
2022-10-26T01:06:05.420Z,9.50
2022-10-26T01:08:33.038Z,9.50
2022-10-26T01:11:01.706Z,9.50
2022-10-26T01:13:31.579Z,9.50
2022-10-26T01:16:30.666Z,9.50
2022-10-26T01:19:54.541Z,9.50
2022-10-26T01:22:41.521Z,9.60
2022-10-26T01:26:06.436Z,9.50
2022-10-26T01:28:42.016Z,9.50
2022-10-26T01:31:13.166Z,9.50
2022-10-26T01:33:48.927Z,9.50
2022-10-26T01:36:38.921Z,9.50
2022-10-26T01:39:29.876Z,9.60
2022-10-26T01:42:00.686Z,9.50
2022-10-26T01:44:44.565Z,9.50
2022-10-26T01:47:14.629Z,9.60
2022-10-26T01:49:52.390Z,9.60
2022-10-26T01:52:20.124Z,9.60
2022-10-26T01:54:47.186Z,9.60
2022-10-26T01:57:19.012Z,9.60
2022-10-26T02:00:18.338Z,9.60
2022-10-26T02:03:23.214Z,9.70
2022-10-26T02:12:22.123Z,9.80
2022-10-26T02:15:06.238Z,9.80
2022-10-26T02:17:58.819Z,9.80
2022-10-26T02:20:34.811Z,9.80
2022-10-26T02:23:05.805Z,9.80
2022-10-26T02:25:37.380Z,9.80
2022-10-26T02:28:10.048Z,9.80
2022-10-26T02:30:39.245Z,9.80
2022-10-26T02:33:08.850Z,9.80
2022-10-26T02:35:37.571Z,9.80
2022-10-26T02:38:10.307Z,9.80
2022-10-26T02:40:38.285Z,9.90
2022-10-26T02:43:13.598Z,9.90
2022-10-26T02:45:48.102Z,9.90
2022-10-26T02:48:15.971Z,9.90
2022-10-26T02:51:13.475Z,9.90
2022-10-26T02:54:00.852Z,9.90
2022-10-26T02:56:56.624Z,9.90
2022-10-26T02:59:26.332Z,9.90
2022-10-26T03:01:54.291Z,9.90
2022-10-26T03:04:21.219Z,10.00
2022-10-26T03:06:54.626Z,10.00
2022-10-26T03:09:23.551Z,10.00
2022-10-26T03:11:52.577Z,10.00
2022-10-26T03:14:19.752Z,10.00
2022-10-26T03:16:46.762Z,10.00
2022-10-26T03:19:13.765Z,10.10
2022-10-26T03:21:42.480Z,10.10
2022-10-26T03:24:10.075Z,10.00
2022-10-26T03:26:37.411Z,10.00
2022-10-26T03:29:04.550Z,10.00
2022-10-26T03:31:31.453Z,10.00
2022-10-26T03:33:58.416Z,10.00
2022-10-26T03:36:25.405Z,10.00
2022-10-26T03:38:52.393Z,10.00
2022-10-26T03:41:19.392Z,10.00
2022-10-26T03:43:47.402Z,10.00
2022-10-26T03:46:14.305Z,10.00
2022-10-26T03:48:41.240Z,10.00
2022-10-26T03:51:08.205Z,10.00
2022-10-26T03:53:35.106Z,10.00
2022-10-26T03:56:02.002Z,10.00
2022-10-26T03:58:28.937Z,10.00
2022-10-26T04:00:55.902Z,10.10
2022-10-26T04:03:23.135Z,10.10
2022-10-26T04:05:50.333Z,10.10
2022-10-26T04:08:17.302Z,10.10
2022-10-26T04:10:46.348Z,10.10
2022-10-26T04:13:13.472Z,10.10
2022-10-26T04:15:40.475Z,10.10
2022-10-26T04:18:07.417Z,10.10
2022-10-26T04:20:36.950Z,10.10
2022-10-26T04:23:06.381Z,10.20
2022-10-26T04:25:34.336Z,10.20
2022-10-26T04:28:02.788Z,10.10
2022-10-26T04:30:29.793Z,10.10
2022-10-26T04:32:56.908Z,10.10
2022-10-26T04:35:24.397Z,10.10
2022-10-26T04:37:52.193Z,10.20
2022-10-26T04:40:19.083Z,10.20
2022-10-26T04:42:48.142Z,10.20
2022-10-26T04:45:16.448Z,10.20
2022-10-26T04:47:44.021Z,10.20
2022-10-26T04:50:12.576Z,10.20
2022-10-26T04:52:39.985Z,10.20
2022-10-26T04:55:07.811Z,10.20
2022-10-26T04:57:35.735Z,10.30
2022-10-26T05:00:03.987Z,10.30
2022-10-26T05:02:31.040Z,10.30
2022-10-26T05:04:58.112Z,10.30
2022-10-26T05:07:25.071Z,10.30
2022-10-26T05:09:51.965Z,10.30
2022-10-26T05:12:19.057Z,10.30
2022-10-26T05:14:46.039Z,10.40
2022-10-26T05:17:13.141Z,10.30
2022-10-26T05:19:40.325Z,10.30
2022-10-26T05:22:07.403Z,10.40
2022-10-26T05:24:34.538Z,10.40
2022-10-26T05:27:01.444Z,10.40
2022-10-26T05:29:28.328Z,10.40
2022-10-26T05:31:55.177Z,10.40
2022-10-26T05:34:22.112Z,10.40
2022-10-26T05:36:48.975Z,10.40
2022-10-26T05:39:15.844Z,10.50
2022-10-26T05:41:42.735Z,10.50
2022-10-26T05:44:09.662Z,10.50
2022-10-26T05:46:36.597Z,10.50
2022-10-26T05:49:03.494Z,10.50
2022-10-26T05:51:32.515Z,10.50
2022-10-26T05:53:59.426Z,10.50
2022-10-26T05:56:39.152Z,10.50
2022-10-26T05:59:13.358Z,10.50
2022-10-26T06:02:24.027Z,10.60
2022-10-26T06:04:51.502Z,10.60
2022-10-26T06:07:20.929Z,10.70
2022-10-26T06:09:49.109Z,10.70
2022-10-26T06:12:19.297Z,10.80
2022-10-26T06:14:47.593Z,10.80
2022-10-26T06:17:57.385Z,10.80
2022-10-26T06:20:50.628Z,10.80
2022-10-26T06:24:07.692Z,10.90
2022-10-26T06:26:55.435Z,10.90
2022-10-26T06:29:56.881Z,10.90
2022-10-26T06:32:25.193Z,11.00
2022-10-26T06:34:58.641Z,11.00
2022-10-26T06:37:26.189Z,11.00
2022-10-26T06:39:54.957Z,11.00
2022-10-26T06:42:22.319Z,11.10
2022-10-26T06:44:49.594Z,11.10
2022-10-26T06:47:50.591Z,11.10
2022-10-26T06:50:51.601Z,11.20
2022-10-26T06:54:00.598Z,11.20
2022-10-26T06:56:28.351Z,11.20
2022-10-26T06:59:04.757Z,11.30
2022-10-26T07:01:33.975Z,11.30
2022-10-26T07:04:00.882Z,11.40
2022-10-26T07:06:27.788Z,11.40
2022-10-26T07:08:54.989Z,11.40
2022-10-26T07:11:21.970Z,11.40
2022-10-26T07:13:50.737Z,11.50
2022-10-26T07:16:17.798Z,11.60
2022-10-26T07:18:44.721Z,11.60
2022-10-26T07:21:11.664Z,11.70
2022-10-26T07:23:38.554Z,11.70
2022-10-26T07:26:05.695Z,11.70
2022-10-26T07:28:32.625Z,11.70
2022-10-26T07:30:59.476Z,11.80
2022-10-26T07:33:26.413Z,11.80
2022-10-26T07:35:54.255Z,11.80
2022-10-26T07:38:21.182Z,11.90
2022-10-26T07:40:49.158Z,12.00
2022-10-26T07:43:16.420Z,12.10
2022-10-26T07:45:43.288Z,12.10
2022-10-26T07:48:10.170Z,12.30
2022-10-26T07:50:37.057Z,12.30
2022-10-26T07:53:04.121Z,12.40
2022-10-26T07:55:31.036Z,12.40
2022-10-26T07:57:58.251Z,12.50
2022-10-26T08:00:26.071Z,12.50
2022-10-26T08:02:52.989Z,12.50
2022-10-26T08:05:19.909Z,12.60
2022-10-26T08:07:47.042Z,12.70
2022-10-26T08:10:15.534Z,12.80
2022-10-26T08:12:43.821Z,12.90
2022-10-26T08:15:11.551Z,13.00
2022-10-26T08:17:38.502Z,13.10
2022-10-26T08:20:06.191Z,13.20
2022-10-26T08:22:33.077Z,13.30
2022-10-26T08:24:59.964Z,13.40
2022-10-26T08:27:26.876Z,13.70
2022-10-26T08:29:53.723Z,13.80
2022-10-26T08:32:20.602Z,13.80
2022-10-26T08:34:47.600Z,13.80
2022-10-26T08:37:14.539Z,13.90
2022-10-26T08:39:41.494Z,13.80
2022-10-26T08:42:22.996Z,13.80
2022-10-26T08:44:58.551Z,13.80
2022-10-26T08:47:48.227Z,13.90
2022-10-26T08:50:40.601Z,14.40
2022-10-26T08:54:10.970Z,16.10
2022-10-26T08:56:57.591Z,17.00
2022-10-26T08:59:41.344Z,17.80
2022-10-26T09:02:16.579Z,18.70
2022-10-26T09:04:44.310Z,19.10
2022-10-26T09:07:53.510Z,18.70
2022-10-26T09:10:37.861Z,18.70
2022-10-26T09:13:28.467Z,18.90
2022-10-26T09:16:08.418Z,19.00
2022-10-26T09:19:02.876Z,19.50
2022-10-26T09:21:48.936Z,19.70
2022-10-26T09:24:44.989Z,19.50
2022-10-26T09:27:26.482Z,19.60
2022-10-26T09:29:58.028Z,20.20
2022-10-26T09:32:38.305Z,20.70
2022-10-26T09:35:21.587Z,21.10
2022-10-26T09:38:14.501Z,21.60
2022-10-26T09:41:13.346Z,21.60
2022-10-26T09:44:27.966Z,21.70
2022-10-26T09:47:23.293Z,21.90
2022-10-26T09:49:55.368Z,22.20
2022-10-26T09:52:22.542Z,22.20
2022-10-26T09:54:49.434Z,22.20
2022-10-26T09:57:19.780Z,22.10
2022-10-26T09:59:48.096Z,21.80
2022-10-26T10:02:43.937Z,21.70
2022-10-26T10:05:49.829Z,21.90
2022-10-26T10:08:26.358Z,21.80
2022-10-26T10:11:16.341Z,21.70
2022-10-26T10:13:45.828Z,21.60
2022-10-26T10:16:25.595Z,21.50
2022-10-26T10:19:00.593Z,21.60
2022-10-26T10:21:44.810Z,21.30
2022-10-26T10:24:31.594Z,20.90
2022-10-26T10:27:17.686Z,20.80
2022-10-26T10:29:50.005Z,20.70
2022-10-26T10:32:30.725Z,20.80
2022-10-26T10:35:00.687Z,20.90
2022-10-26T10:37:46.135Z,21.00
2022-10-26T10:40:26.665Z,21.10
2022-10-26T10:43:03.431Z,21.10
2022-10-26T10:45:31.651Z,20.80
2022-10-26T10:48:20.749Z,20.60
2022-10-26T10:51:13.156Z,20.60
2022-10-26T10:53:57.061Z,20.50
2022-10-26T10:56:47.630Z,20.50
2022-10-26T10:59:43.994Z,20.50
2022-10-26T11:02:17.000Z,20.60
2022-10-26T11:05:11.984Z,20.70
2022-10-26T11:08:10.132Z,20.70
2022-10-26T11:10:42.117Z,20.70
2022-10-26T11:14:01.245Z,20.70
2022-10-26T11:16:37.219Z,20.50
2022-10-26T11:19:33.868Z,20.30
2022-10-26T11:22:05.570Z,20.10
2022-10-26T11:24:49.359Z,20.00
2022-10-26T11:27:23.751Z,20.10
2022-10-26T11:30:06.753Z,20.00
2022-10-26T11:32:54.903Z,19.90
2022-10-26T11:35:37.295Z,19.90
2022-10-26T11:38:45.442Z,20.00
2022-10-26T11:41:34.128Z,19.90
2022-10-26T11:44:13.734Z,19.90
2022-10-26T11:46:46.099Z,20.00
2022-10-26T11:49:39.010Z,20.10
2022-10-26T11:52:38.950Z,20.10
2022-10-26T11:55:08.840Z,20.00
2022-10-26T11:57:37.890Z,20.00
2022-10-26T12:00:20.684Z,20.00
2022-10-26T12:02:55.846Z,20.00
2022-10-26T12:05:46.889Z,20.00
2022-10-26T12:08:32.900Z,20.10
2022-10-26T12:11:58.731Z,20.10
2022-10-26T12:14:29.108Z,20.10
2022-10-26T12:17:13.650Z,20.10
2022-10-26T12:20:08.003Z,20.10
2022-10-26T12:22:38.592Z,20.20
2022-10-26T12:25:34.667Z,20.30
2022-10-26T12:28:01.597Z,20.20
2022-10-26T12:30:32.672Z,20.20
2022-10-26T12:33:29.397Z,20.20
2022-10-26T12:35:56.412Z,20.20
2022-10-26T12:38:45.991Z,20.20
2022-10-26T12:41:21.866Z,20.30
2022-10-26T12:43:48.996Z,20.20
2022-10-26T12:46:39.778Z,20.20
2022-10-26T12:49:33.220Z,20.20
2022-10-26T12:54:52.639Z,20.10
2022-10-26T12:57:30.584Z,20.10
2022-10-26T13:00:06.102Z,20.10
2022-10-26T13:03:24.383Z,20.10
2022-10-26T13:06:27.151Z,20.00
2022-10-26T13:09:00.276Z,20.00
2022-10-26T13:11:38.447Z,20.00
2022-10-26T13:14:09.130Z,20.00
2022-10-26T13:16:36.160Z,20.00
2022-10-26T13:19:03.277Z,20.00
2022-10-26T13:21:30.232Z,20.10
2022-10-26T13:24:02.263Z,20.00
2022-10-26T13:26:31.178Z,20.10
2022-10-26T13:29:00.872Z,20.10
2022-10-26T13:31:54.751Z,20.10
2022-10-26T13:34:22.871Z,20.10
2022-10-26T13:37:24.226Z,20.10
2022-10-26T13:39:55.863Z,20.10
2022-10-26T13:42:27.517Z,20.10
2022-10-26T13:44:57.633Z,20.20
2022-10-26T13:47:28.975Z,20.20
2022-10-26T13:50:00.236Z,20.40
2022-10-26T13:52:36.692Z,20.70
2022-10-26T13:55:13.431Z,21.00
2022-10-26T13:57:43.906Z,20.90
2022-10-26T14:00:22.746Z,20.80
2022-10-26T14:02:50.111Z,21.00
2022-10-26T14:05:19.316Z,21.10
2022-10-26T14:07:58.017Z,21.10
2022-10-26T14:10:39.084Z,21.10
2022-10-26T14:13:13.826Z,21.20
2022-10-26T14:15:44.904Z,21.30
2022-10-26T14:18:31.530Z,21.40
2022-10-26T14:21:13.786Z,21.50
2022-10-26T14:23:53.133Z,21.60
2022-10-26T14:26:38.313Z,21.70
2022-10-26T14:29:14.490Z,21.40
2022-10-26T14:31:41.394Z,21.20
2022-10-26T14:34:11.534Z,21.00
2022-10-26T14:36:51.399Z,20.80
2022-10-26T14:39:36.198Z,20.60
2022-10-26T14:42:28.914Z,20.40
2022-10-26T14:44:56.828Z,20.30
2022-10-26T14:47:30.299Z,20.10
2022-10-26T14:52:36.723Z,19.90
2022-10-26T14:55:22.502Z,19.90
2022-10-26T14:57:52.268Z,19.80
2022-10-26T15:00:24.590Z,19.70
2022-10-26T15:02:56.253Z,19.60
2022-10-26T15:05:34.797Z,19.60
2022-10-26T15:08:03.497Z,19.60
2022-10-26T15:10:56.640Z,19.60
2022-10-26T15:13:31.886Z,19.40
2022-10-26T15:16:11.874Z,19.30
2022-10-26T15:18:39.423Z,19.20
2022-10-26T15:21:31.170Z,19.20
2022-10-26T15:23:58.933Z,19.10
2022-10-26T15:26:26.218Z,19.00
2022-10-26T15:28:54.191Z,19.00
2022-10-26T15:31:33.309Z,18.90
2022-10-26T15:34:14.356Z,18.90
2022-10-26T15:36:42.197Z,18.80
2022-10-26T15:39:10.273Z,18.70
2022-10-26T15:41:44.800Z,18.60
2022-10-26T15:44:16.537Z,18.50
2022-10-26T15:46:43.777Z,18.40
2022-10-26T15:49:17.833Z,18.30
2022-10-26T15:51:48.830Z,18.30
2022-10-26T15:54:15.940Z,18.20
2022-10-26T15:56:46.258Z,18.10
2022-10-26T15:59:19.741Z,18.10
2022-10-26T16:01:46.896Z,18.10
2022-10-26T16:04:14.074Z,18.10
2022-10-26T16:06:42.085Z,18.00
2022-10-26T16:09:14.573Z,17.90
2022-10-26T16:11:42.084Z,17.80
2022-10-26T16:14:10.914Z,17.70
2022-10-26T16:16:37.838Z,17.60
2022-10-26T16:19:29.173Z,17.60
2022-10-26T16:21:52.351Z,17.60
2022-10-26T16:24:19.469Z,17.60
2022-10-26T16:26:46.499Z,17.50
2022-10-26T16:29:13.812Z,17.40
2022-10-26T16:31:40.734Z,17.40
2022-10-26T16:34:07.648Z,17.30
2022-10-26T16:36:34.980Z,17.20
2022-10-26T16:41:34.791Z,17.20
2022-10-26T16:44:01.722Z,17.20
2022-10-26T16:46:28.840Z,17.10
2022-10-26T16:48:55.838Z,17.10
2022-10-26T16:51:31.556Z,17.00
2022-10-26T16:53:58.637Z,17.00
2022-10-26T16:56:30.225Z,16.90
2022-10-26T16:58:57.349Z,16.70
2022-10-26T17:01:24.899Z,16.70
2022-10-26T17:03:53.093Z,16.60
2022-10-26T17:06:20.508Z,16.50
2022-10-26T17:08:48.141Z,16.40
2022-10-26T17:11:20.562Z,16.40
2022-10-26T17:13:48.406Z,16.40
2022-10-26T17:16:18.248Z,16.40
2022-10-26T17:18:45.679Z,16.30
2022-10-26T17:21:14.547Z,16.20
2022-10-26T17:23:42.069Z,16.20
2022-10-26T17:26:12.441Z,16.20
2022-10-26T17:28:39.811Z,16.30
2022-10-26T17:31:12.480Z,16.20
2022-10-26T17:33:40.531Z,16.10
2022-10-26T17:36:09.213Z,16.00
2022-10-26T17:38:38.663Z,15.90
2022-10-26T17:41:18.391Z,15.90
2022-10-26T17:43:46.799Z,15.90
2022-10-26T17:46:16.562Z,16.00
2022-10-26T17:48:43.647Z,16.20
2022-10-26T17:51:18.315Z,16.30
2022-10-26T17:53:52.613Z,16.30
2022-10-26T17:56:22.590Z,16.20
2022-10-26T17:59:01.740Z,16.20
2022-10-26T18:01:29.229Z,16.10
2022-10-26T18:03:56.848Z,16.00
2022-10-26T18:06:24.480Z,15.90
2022-10-26T18:08:51.653Z,15.90
2022-10-26T18:11:26.096Z,15.80
2022-10-26T18:13:57.696Z,15.90
2022-10-26T18:16:26.745Z,15.80
2022-10-26T18:19:00.815Z,15.90
2022-10-26T18:21:30.406Z,15.90
2022-10-26T18:23:57.579Z,15.90
2022-10-26T18:26:26.643Z,15.90
2022-10-26T18:28:53.615Z,15.90
2022-10-26T18:31:22.295Z,15.90
2022-10-26T18:33:49.544Z,15.90
2022-10-26T18:36:18.535Z,15.90
2022-10-26T18:38:47.572Z,15.90
2022-10-26T18:41:17.115Z,15.90
2022-10-26T18:43:46.746Z,15.90
2022-10-26T18:46:19.100Z,16.00
2022-10-26T18:48:48.719Z,16.00
2022-10-26T18:51:18.666Z,15.90
2022-10-26T18:53:46.772Z,15.80
2022-10-26T18:56:16.765Z,15.70
2022-10-26T18:58:46.084Z,15.60
2022-10-26T19:01:14.158Z,15.50
2022-10-26T19:03:42.045Z,15.40
2022-10-26T19:06:33.718Z,15.40
2022-10-26T19:09:01.332Z,15.20
2022-10-26T19:11:30.001Z,15.20
2022-10-26T19:13:57.336Z,15.10
2022-10-26T19:16:45.047Z,15.10
2022-10-26T19:19:13.781Z,15.00
2022-10-26T19:21:40.984Z,14.80
2022-10-26T19:24:15.875Z,14.80
2022-10-26T19:26:44.201Z,14.80
2022-10-26T19:29:15.320Z,14.80
2022-10-26T19:31:44.179Z,14.80
2022-10-26T19:34:12.130Z,14.70
2022-10-26T19:36:39.760Z,14.70
2022-10-26T19:39:07.760Z,14.60
2022-10-26T19:41:34.774Z,14.50
2022-10-26T19:44:01.754Z,14.50
2022-10-26T19:46:32.768Z,14.40
2022-10-26T19:49:01.634Z,14.30
2022-10-26T19:51:30.063Z,14.20
2022-10-26T19:54:03.178Z,14.10
2022-10-26T19:56:31.354Z,14.00
2022-10-26T19:58:58.471Z,14.00
2022-10-26T20:01:25.647Z,13.90
2022-10-26T20:03:52.788Z,13.70
2022-10-26T20:06:19.800Z,13.60
2022-10-26T20:08:48.727Z,13.60
2022-10-26T20:11:16.890Z,13.50
2022-10-26T20:13:45.175Z,13.50
2022-10-26T20:16:12.970Z,13.40
2022-10-26T20:18:44.063Z,13.30
2022-10-26T20:21:15.402Z,13.30
2022-10-26T20:23:43.096Z,13.30
2022-10-26T20:26:11.898Z,13.40
2022-10-26T20:28:45.337Z,13.40
2022-10-26T20:31:13.169Z,13.20
2022-10-26T20:33:41.248Z,13.10
2022-10-26T20:36:08.470Z,13.00
2022-10-26T20:38:35.961Z,13.00
2022-10-26T20:41:06.246Z,13.00
2022-10-26T20:43:39.638Z,13.00
2022-10-26T20:46:11.469Z,13.00
2022-10-26T20:48:38.989Z,13.10
2022-10-26T20:51:07.295Z,13.20
2022-10-26T20:54:01.992Z,13.30
2022-10-26T20:56:29.539Z,13.30
2022-10-26T20:58:58.966Z,13.40
2022-10-26T21:01:29.728Z,13.40
2022-10-26T21:03:58.906Z,13.40
2022-10-26T21:06:29.343Z,13.50
2022-10-26T21:08:57.240Z,13.40
2022-10-26T21:11:25.413Z,13.50
2022-10-26T21:13:53.964Z,13.40
2022-10-26T21:18:50.771Z,13.40
2022-10-26T21:21:17.678Z,13.50
2022-10-26T21:23:44.871Z,13.40
2022-10-26T21:26:12.166Z,13.40
2022-10-26T21:28:47.465Z,13.40
2022-10-26T21:31:16.753Z,13.40
2022-10-26T21:33:46.081Z,13.40
2022-10-26T21:36:14.027Z,13.30
2022-10-26T21:38:42.931Z,13.40
2022-10-26T21:41:21.152Z,13.30
2022-10-26T21:43:51.426Z,13.30
2022-10-26T21:46:21.090Z,13.30
2022-10-26T21:48:48.349Z,13.30
2022-10-26T21:51:20.495Z,13.30
2022-10-26T21:53:48.345Z,13.30
2022-10-26T21:56:21.202Z,13.30
2022-10-26T21:58:48.288Z,13.30
2022-10-26T22:01:20.981Z,13.30
2022-10-26T22:03:48.722Z,13.30
2022-10-26T22:06:17.716Z,13.20
2022-10-26T22:08:45.070Z,13.20
2022-10-26T22:11:17.510Z,13.10
2022-10-26T22:13:46.045Z,13.10
2022-10-26T22:16:15.533Z,13.10
2022-10-26T22:18:45.049Z,13.10
2022-10-26T22:21:13.585Z,13.10
2022-10-26T22:23:41.847Z,13.10
2022-10-26T22:26:12.757Z,13.20
2022-10-26T22:28:42.842Z,13.20
2022-10-26T22:31:16.684Z,13.20
2022-10-26T22:33:44.193Z,13.20
2022-10-26T22:36:15.021Z,13.10
2022-10-26T22:38:42.203Z,13.10
2022-10-26T22:41:10.990Z,13.10
2022-10-26T22:43:38.244Z,13.10
2022-10-26T22:46:12.278Z,13.10
2022-10-26T22:48:41.396Z,13.10
2022-10-26T22:51:10.619Z,13.00
2022-10-26T22:53:38.093Z,13.00
2022-10-26T22:56:07.327Z,13.00
2022-10-26T22:58:38.678Z,12.90
2022-10-26T23:01:17.542Z,12.90
2022-10-26T23:03:44.521Z,12.80
2022-10-26T23:06:14.539Z,12.80
2022-10-26T23:08:42.123Z,12.70
2022-10-26T23:11:12.207Z,12.70
2022-10-26T23:13:39.287Z,12.60
2022-10-26T23:16:18.147Z,12.60
2022-10-26T23:18:45.125Z,12.60
2022-10-26T23:21:13.278Z,12.60
2022-10-26T23:23:40.842Z,12.60
2022-10-26T23:26:12.168Z,12.50
2022-10-26T23:28:40.142Z,12.40
2022-10-26T23:31:07.803Z,12.40
2022-10-26T23:33:34.756Z,12.50
2022-10-26T23:36:01.701Z,12.50
2022-10-26T23:38:28.745Z,12.50
2022-10-26T23:40:57.935Z,12.50
2022-10-26T23:43:26.031Z,12.50
2022-10-26T23:45:53.457Z,12.40
2022-10-26T23:48:21.209Z,12.40
2022-10-26T23:50:49.737Z,12.40
2022-10-26T23:53:19.147Z,12.30
2022-10-26T23:55:46.743Z,12.30
2022-10-26T23:58:15.007Z,12.30
